createdAt,value
2022-12-18T00:03:44.567Z,7.97
2022-12-18T00:08:49.287Z,6.63
2022-12-18T00:13:53.813Z,7.83
2022-12-18T00:18:59.455Z,11.67
2022-12-18T00:24:03.244Z,8.97
2022-12-18T00:29:09.401Z,8.07
2022-12-18T00:34:15.472Z,8.53
2022-12-18T00:39:19.127Z,7.03
2022-12-18T00:44:22.796Z,8.47
2022-12-18T00:49:29.516Z,9.20
2022-12-18T00:54:33.113Z,9.33
2022-12-18T00:59:37.609Z,9.13
2022-12-18T01:04:42.576Z,7.53
2022-12-18T01:09:46.246Z,8.23
2022-12-18T01:14:50.528Z,8.83
2022-12-18T01:19:55.581Z,7.90
2022-12-18T01:24:59.165Z,7.60
2022-12-18T01:30:03.341Z,6.17
2022-12-18T01:35:09.899Z,5.67
2022-12-18T01:40:13.757Z,5.77
2022-12-18T01:45:27.149Z,6.80
2022-12-18T01:50:35.813Z,6.63
2022-12-18T01:55:44.297Z,6.03
2022-12-18T02:00:48.348Z,6.33
2022-12-18T02:05:59.482Z,7.50
2022-12-18T02:11:11.880Z,4.87
2022-12-18T02:16:24.096Z,5.63
2022-12-18T02:21:38.849Z,7.27
2022-12-18T02:26:48.753Z,5.23
2022-12-18T02:31:55.679Z,5.83
2022-12-18T02:37:02.592Z,7.67
2022-12-18T02:42:09.631Z,6.67
2022-12-18T02:47:14.564Z,6.10
2022-12-18T02:52:28.167Z,7.60
2022-12-18T02:57:39.147Z,6.07
2022-12-18T03:02:48.825Z,6.83
2022-12-18T03:07:58.794Z,8.03
2022-12-18T03:13:11.617Z,6.23
2022-12-18T03:18:20.388Z,6.07
2022-12-18T03:23:29.417Z,6.40
2022-12-18T09:45:44.563Z,9.97
2022-12-18T09:50:49.808Z,8.90
2022-12-18T09:55:55.323Z,7.93
2022-12-18T10:01:00.486Z,8.83
2022-12-18T10:06:10.140Z,9.63
2022-12-18T10:11:30.616Z,8.67
2022-12-18T10:16:40.916Z,11.27
2022-12-18T10:21:52.689Z,10.13
2022-12-18T10:27:02.725Z,8.20
2022-12-18T10:32:09.234Z,9.33
2022-12-18T10:37:18.132Z,7.97
2022-12-18T10:42:22.006Z,11.17
2022-12-18T10:47:27.059Z,9.10
2022-12-18T10:52:30.792Z,7.73
2022-12-18T10:57:37.917Z,10.43
2022-12-18T11:02:42.954Z,8.60
2022-12-18T11:07:51.469Z,9.67
2022-12-18T11:12:55.130Z,7.97
2022-12-18T11:18:00.133Z,11.80
2022-12-18T11:23:07.535Z,11.53
2022-12-18T11:28:36.419Z,11.23
2022-12-18T11:34:04.909Z,10.20
2022-12-18T11:39:17.738Z,12.00
2022-12-18T11:44:28.405Z,13.13
2022-12-18T11:49:36.575Z,12.17
2022-12-18T11:54:40.266Z,13.43
2022-12-18T11:59:51.670Z,12.17
2022-12-18T12:05:22.736Z,12.37
2022-12-18T12:10:40.978Z,13.57
2022-12-18T12:15:50.364Z,15.93
2022-12-18T12:21:02.786Z,14.67
2022-12-18T12:26:09.716Z,14.13
2022-12-18T12:31:23.257Z,14.50
2022-12-18T12:36:43.103Z,13.33
2022-12-18T12:42:06.110Z,16.70
2022-12-18T12:47:16.978Z,16.27
2022-12-18T12:52:30.455Z,18.43
2022-12-18T12:57:39.103Z,15.97
2022-12-18T13:02:49.585Z,17.80
2022-12-18T13:07:59.300Z,16.83
2022-12-18T13:13:05.163Z,15.50
2022-12-18T13:18:20.205Z,18.33
2022-12-18T13:23:35.763Z,19.53
2022-12-18T13:28:55.752Z,16.43
2022-12-18T13:34:27.487Z,17.57
2022-12-18T13:39:36.937Z,17.43
2022-12-18T13:44:42.006Z,17.93
2022-12-18T13:49:46.527Z,17.20
2022-12-18T13:54:55.370Z,15.33
2022-12-18T14:00:00.015Z,15.93
2022-12-18T14:05:03.704Z,17.57
2022-12-18T14:15:43.773Z,18.50
2022-12-18T14:20:52.509Z,20.47
2022-12-18T14:26:03.641Z,20.40
2022-12-18T14:31:20.246Z,19.53
2022-12-18T14:36:25.589Z,19.07
2022-12-18T14:41:30.813Z,19.60
2022-12-18T14:46:38.327Z,17.07
2022-12-18T14:51:48.893Z,18.83
2022-12-18T14:56:59.266Z,22.07
2022-12-18T15:02:11.963Z,19.57
2022-12-18T15:07:20.714Z,20.00
2022-12-18T15:12:35.211Z,17.27
2022-12-18T15:17:38.963Z,20.53
2022-12-18T15:22:42.623Z,21.73
2022-12-18T15:27:49.486Z,24.13
2022-12-18T15:32:55.492Z,20.90
2022-12-18T15:37:59.189Z,21.37
2022-12-18T15:43:24.538Z,20.37
2022-12-18T15:48:28.095Z,23.20
2022-12-18T15:53:34.737Z,21.70
2022-12-18T15:58:39.772Z,21.53
2022-12-18T16:03:44.244Z,22.27
2022-12-18T16:08:48.613Z,24.80
2022-12-18T16:13:53.738Z,26.60
2022-12-18T16:18:57.370Z,20.73
2022-12-18T16:24:00.965Z,23.97
2022-12-18T16:29:06.056Z,23.80
2022-12-18T16:34:22.782Z,21.50
2022-12-18T16:39:28.866Z,25.13
2022-12-18T16:44:33.943Z,27.43
2022-12-18T16:49:37.732Z,27.30
2022-12-18T16:54:41.565Z,26.50
2022-12-18T16:59:47.000Z,23.73
2022-12-18T17:04:50.869Z,28.43
2022-12-18T17:09:54.744Z,26.20
2022-12-18T17:14:59.832Z,27.43
2022-12-18T17:20:03.439Z,26.17
2022-12-18T17:25:07.461Z,30.57
2022-12-18T17:30:13.636Z,28.20
2022-12-18T17:35:17.668Z,25.43
2022-12-18T17:40:21.294Z,32.70
2022-12-18T17:45:26.479Z,24.03
2022-12-18T17:50:30.105Z,31.43
2022-12-18T17:55:33.685Z,29.80
2022-12-18T18:00:40.773Z,32.17
2022-12-18T18:05:44.601Z,29.07
2022-12-18T18:10:48.988Z,31.55
2022-12-18T18:15:58.766Z,26.37
2022-12-18T18:21:09.176Z,32.80
2022-12-18T18:26:12.715Z,31.40
2022-12-18T18:31:18.161Z,30.90
2022-12-18T18:36:22.399Z,28.83
2022-12-18T18:41:26.358Z,30.10
2022-12-18T18:46:31.407Z,27.30
2022-12-18T18:51:35.816Z,32.70
2022-12-18T18:57:40.098Z,26.03
2022-12-18T19:02:05.125Z,32.83
2022-12-18T19:07:09.207Z,29.60
2022-12-18T19:12:30.574Z,32.30
2022-12-18T19:17:37.357Z,32.87
2022-12-18T19:22:41.638Z,28.77
2022-12-18T19:27:46.518Z,28.60
2022-12-18T19:32:51.668Z,29.07
2022-12-18T19:37:55.531Z,29.43
2022-12-18T19:42:59.650Z,33.10
2022-12-18T19:48:07.179Z,27.23
2022-12-18T19:53:10.788Z,31.83
2022-12-18T19:58:14.337Z,30.87
2022-12-18T20:03:27.359Z,32.70
2022-12-18T20:08:34.228Z,34.37
2022-12-18T20:13:38.435Z,36.07
2022-12-18T20:18:43.633Z,34.13
2022-12-18T20:23:47.979Z,31.27
2022-12-18T20:28:53.984Z,31.17
2022-12-18T20:33:59.874Z,29.07
2022-12-18T20:39:07.562Z,28.87
2022-12-18T20:44:23.610Z,30.50
2022-12-18T20:49:29.496Z,29.40
2022-12-18T20:54:33.163Z,28.80
2022-12-18T20:59:36.753Z,29.50
2022-12-18T21:04:41.804Z,31.83
2022-12-18T21:09:45.503Z,29.83
2022-12-18T21:14:49.066Z,29.00
2022-12-18T21:19:55.377Z,32.13
2022-12-18T21:24:58.996Z,30.40
2022-12-18T21:30:02.585Z,32.23
2022-12-18T21:35:08.306Z,25.47
2022-12-18T21:40:12.840Z,29.70
2022-12-18T21:45:16.791Z,27.17
2022-12-18T21:50:22.042Z,30.47
2022-12-18T21:55:25.877Z,33.30
2022-12-18T22:00:29.517Z,27.17
2022-12-18T22:05:34.488Z,32.97
2022-12-18T22:10:39.017Z,32.40
2022-12-18T22:15:42.674Z,31.60
2022-12-18T22:20:47.674Z,34.03
2022-12-18T22:25:51.251Z,32.60
2022-12-18T22:30:58.988Z,29.50
2022-12-18T22:36:09.582Z,30.20
2022-12-18T22:41:13.220Z,31.60
2022-12-18T22:46:18.496Z,29.67
2022-12-18T22:51:26.402Z,27.63
2022-12-18T22:56:29.952Z,30.23
2022-12-18T23:01:34.119Z,34.53
2022-12-18T23:06:41.477Z,39.80
2022-12-18T23:11:45.466Z,32.33
2022-12-18T23:16:49.923Z,28.37
2022-12-18T23:21:58.777Z,27.97
2022-12-18T23:27:02.389Z,30.10
2022-12-18T23:32:09.525Z,33.90
2022-12-18T23:37:30.014Z,32.93
2022-12-18T23:42:38.228Z,33.37
2022-12-18T23:47:41.739Z,32.37
2022-12-18T23:52:46.722Z,32.10
2022-12-18T23:57:50.252Z,29.70
